Time;durP1;ratioP1;P1;durP2;ratioP2;P2;SDS_P1;SDS_P2;PMS_P1;PMS_P2;Temp;Humidity;BMP_temperature;BMP_pressure;BME280_temperature;BME280_humidity;BME280_pressure;Samples;Min_cycle;Max_cycle;Signal;HPM_P1;HPM_P2
2023/09/20 00:00:11;;;;;;;1999.90;999.90;;;;;;;;;;5057055;28;20048;-87
2023/09/20 00:02:39;;;;;;;1999.90;999.90;;;;;;;;;;5060366;28;20144;-86
2023/09/20 00:05:07;;;;;;;1999.90;999.90;;;;;;;;;;5060308;28;20059;-87
2023/09/20 00:07:34;;;;;;;1999.90;999.90;;;;;;;;;;5057252;28;20044;-86
2023/09/20 00:10:01;;;;;;;1999.90;999.90;;;;;;;;;;5057068;28;20045;-87
2023/09/20 00:12:29;;;;;;;1999.90;999.90;;;;;;;;;;5060314;28;20132;-87
2023/09/20 00:14:56;;;;;;;1999.90;999.90;;;;;;;;;;5059089;28;20053;-85
2023/09/20 00:17:23;;;;;;;1999.90;999.90;;;;;;;;;;5059532;28;20386;-85
2023/09/20 00:19:49;;;;;;;1999.90;999.90;;;;;;;;;;5056883;28;20080;-86
2023/09/20 00:22:16;;;;;;;1999.90;999.90;;;;;;;;;;5057695;28;20052;-90
2023/09/20 00:24:44;;;;;;;1999.90;999.90;;;;;;;;;;5058676;28;20436;-85
2023/09/20 00:27:10;;;;;;;1999.90;999.90;;;;;;;;;;5055768;28;20225;-86
2023/09/20 00:29:37;;;;;;;1999.90;999.90;;;;;;;;;;5058805;28;20048;-85
2023/09/20 00:32:04;;;;;;;1999.90;999.90;;;;;;;;;;5059173;28;20068;-85
2023/09/20 00:34:31;;;;;;;1999.90;999.90;;;;;;;;;;5057609;28;20051;-87
2023/09/20 00:36:58;;;;;;;1999.90;999.90;;;;;;;;;;5053594;28;20048;-86
2023/09/20 00:39:24;;;;;;;1999.90;999.90;;;;;;;;;;5055850;28;20041;-85
2023/09/20 00:41:52;;;;;;;1999.90;999.90;;;;;;;;;;5058184;28;20504;-87
2023/09/20 00:44:19;;;;;;;1999.90;999.90;;;;;;;;;;5059591;28;20051;-86
2023/09/20 00:46:46;;;;;;;1999.90;999.90;;;;;;;;;;5058455;28;20045;-86
2023/09/20 00:49:13;;;;;;;1999.90;999.90;;;;;;;;;;5062048;28;20284;-86
2023/09/20 00:51:40;;;;;;;1999.90;999.90;;;;;;;;;;5061605;28;20069;-87
2023/09/20 00:54:07;;;;;;;1999.90;999.90;;;;;;;;;;5056984;28;20055;-87
2023/09/20 00:56:34;;;;;;;1999.90;999.90;;;;;;;;;;5057822;28;20045;-87
2023/09/20 00:59:06;;;;;;;1999.90;999.90;;;;;;;;;;5058850;28;20540;-87
2023/09/20 01:01:33;;;;;;;1999.90;999.90;;;;;;;;;;5058278;28;20048;-86
2023/09/20 01:04:00;;;;;;;1999.90;999.90;;;;;;;;;;5058393;28;20053;-87
2023/09/20 01:06:27;;;;;;;1999.90;999.90;;;;;;;;;;5062959;28;20049;-87
2023/09/20 01:08:55;;;;;;;1999.90;999.90;;;;;;;;;;5061722;28;20114;-87
2023/09/20 01:11:22;;;;;;;1999.90;999.90;;;;;;;;;;5065722;28;20139;-87
2023/09/20 01:13:49;;;;;;;1999.90;999.90;;;;;;;;;;5060617;28;20081;-89
2023/09/20 01:16:17;;;;;;;1999.90;999.90;;;;;;;;;;5062978;28;20110;-88
2023/09/20 01:18:44;;;;;;;1999.90;999.90;;;;;;;;;;5059959;28;20056;-88
2023/09/20 01:21:11;;;;;;;1999.90;999.90;;;;;;;;;;5063727;28;20052;-87
2023/09/20 01:23:42;;;;;;;1999.90;999.90;;;;;;;;;;5066037;28;20044;-87
2023/09/20 01:26:09;;;;;;;1999.90;999.90;;;;;;;;;;5062066;28;20059;-87
2023/09/20 01:28:35;;;;;;;1999.90;999.90;;;;;;;;;;5061463;28;20045;-86
2023/09/20 01:31:04;;;;;;;1999.90;999.90;;;;;;;;;;5060521;28;20103;-86
2023/09/20 01:33:31;;;;;;;1999.90;999.90;;;;;;;;;;5058475;28;20087;-86
2023/09/20 01:35:58;;;;;;;1999.90;999.90;;;;;;;;;;5062252;28;20080;-87
2023/09/20 01:38:25;;;;;;;1999.90;999.90;;;;;;;;;;5061975;28;20268;-87
2023/09/20 01:40:55;;;;;;;1999.90;999.90;;;;;;;;;;5060969;28;20083;-87
2023/09/20 01:43:23;;;;;;;1999.90;999.90;;;;;;;;;;5064659;28;20071;-86
2023/09/20 01:45:50;;;;;;;1999.90;999.90;;;;;;;;;;5062819;28;20049;-86
2023/09/20 01:48:17;;;;;;;1999.90;999.90;;;;;;;;;;5063874;28;20428;-86
2023/09/20 01:50:44;;;;;;;1999.90;999.90;;;;;;;;;;5061939;28;20489;-86
2023/09/20 01:53:10;;;;;;;1999.90;999.90;;;;;;;;;;5062947;28;20049;-87
2023/09/20 01:55:42;;;;;;;1999.90;999.90;;;;;;;;;;5061590;28;20045;-88
2023/09/20 01:58:12;;;;;;;1999.90;999.90;;;;;;;;;;5060733;28;20044;-88
2023/09/20 02:00:40;;;;;;;1999.90;999.90;;;;;;;;;;5062441;28;20073;-89
2023/09/20 02:03:11;;;;;;;1999.90;999.90;;;;;;;;;;5060667;28;20060;-87
2023/09/20 02:05:37;;;;;;;1999.90;999.90;;;;;;;;;;5060097;28;20079;-86
2023/09/20 02:08:05;;;;;;;1999.90;999.90;;;;;;;;;;5062783;28;20045;-87
2023/09/20 02:10:32;;;;;;;1999.90;999.90;;;;;;;;;;5060976;28;20133;-87
2023/09/20 02:12:59;;;;;;;1999.90;999.90;;;;;;;;;;5060288;28;20049;-86
2023/09/20 02:15:28;;;;;;;1999.90;999.90;;;;;;;;;;5059354;28;20067;-88
2023/09/20 02:17:55;;;;;;;1999.90;999.90;;;;;;;;;;5060407;28;20049;-90
2023/09/20 02:20:23;;;;;;;1999.90;999.90;;;;;;;;;;5058996;28;20408;-88
2023/09/20 02:22:52;;;;;;;1999.90;999.90;;;;;;;;;;5060224;28;20048;-86
2023/09/20 02:25:20;;;;;;;1999.90;999.90;;;;;;;;;;5060378;28;20162;-89
2023/09/20 02:27:47;;;;;;;1999.90;999.90;;;;;;;;;;5061738;28;20620;-87
2023/09/20 02:30:16;;;;;;;1999.90;999.90;;;;;;;;;;5059615;28;20044;-88
2023/09/20 02:32:46;;;;;;;1999.90;999.90;;;;;;;;;;5056578;28;20049;-87
2023/09/20 02:35:12;;;;;;;1999.90;999.90;;;;;;;;;;5061794;28;20604;-87
2023/09/20 02:37:40;;;;;;;1999.90;999.90;;;;;;;;;;5058798;28;20052;-88
2023/09/20 02:40:12;;;;;;;1999.90;999.90;;;;;;;;;;5058604;28;20612;-88
2023/09/20 02:42:44;;;;;;;1999.90;999.90;;;;;;;;;;5058826;28;20051;-88
2023/09/20 02:45:12;;;;;;;1999.90;999.90;;;;;;;;;;5062082;28;20040;-87
2023/09/20 02:47:39;;;;;;;1999.90;999.90;;;;;;;;;;5061548;28;20076;-87
2023/09/20 02:50:10;;;;;;;1999.90;999.90;;;;;;;;;;5059745;28;20045;-89
2023/09/20 02:52:37;;;;;;;1999.90;999.90;;;;;;;;;;5059169;28;20091;-88
2023/09/20 02:55:07;;;;;;;1999.90;999.90;;;;;;;;;;5055960;28;20052;-87
2023/09/20 02:57:34;;;;;;;1999.90;999.90;;;;;;;;;;5060049;28;20049;-87
2023/09/20 03:00:00;;;;;;;1999.90;999.90;;;;;;;;;;5062957;28;20052;-88
2023/09/20 03:02:29;;;;;;;1999.90;999.90;;;;;;;;;;5057718;28;20052;-90
2023/09/20 03:04:56;;;;;;;1999.90;999.90;;;;;;;;;;5059883;28;20041;-88
2023/09/20 03:07:24;;;;;;;1999.90;999.90;;;;;;;;;;5061455;28;20044;-89
2023/09/20 03:09:51;;;;;;;1999.90;999.90;;;;;;;;;;5059565;28;20056;-87
2023/09/20 03:12:17;;;;;;;1999.90;999.90;;;;;;;;;;5060921;28;20052;-88
2023/09/20 03:14:45;;;;;;;1999.90;999.90;;;;;;;;;;5056775;28;20049;-89
2023/09/20 03:17:12;;;;;;;1999.90;999.90;;;;;;;;;;5062309;28;20083;-88
2023/09/20 03:19:38;;;;;;;1999.90;999.90;;;;;;;;;;5057451;28;20110;-87
2023/09/20 03:22:06;;;;;;;1999.90;999.90;;;;;;;;;;5061654;28;20049;-88
2023/09/20 03:24:36;;;;;;;1999.90;999.90;;;;;;;;;;5061159;28;20070;-88
2023/09/20 03:27:02;;;;;;;1999.90;999.90;;;;;;;;;;5058985;28;20049;-87
2023/09/20 03:29:29;;;;;;;1999.90;999.90;;;;;;;;;;5059665;28;20410;-89
2023/09/20 03:31:56;;;;;;;1999.90;999.90;;;;;;;;;;5060411;28;20050;-91
2023/09/20 03:34:23;;;;;;;1999.90;999.90;;;;;;;;;;5059187;28;20143;-89
2023/09/20 03:36:51;;;;;;;1999.90;999.90;;;;;;;;;;5060321;28;20037;-92
2023/09/20 03:39:22;;;;;;;1999.90;999.90;;;;;;;;;;5062070;28;20056;-89
2023/09/20 03:41:51;;;;;;;1999.90;999.90;;;;;;;;;;5060872;28;20504;-88
2023/09/20 03:44:17;;;;;;;1999.90;999.90;;;;;;;;;;5062179;28;20045;-88
2023/09/20 03:46:44;;;;;;;1999.90;999.90;;;;;;;;;;5062448;28;20420;-88
2023/09/20 03:49:11;;;;;;;1999.90;999.90;;;;;;;;;;5057718;28;20072;-87
2023/09/20 03:51:38;;;;;;;1999.90;999.90;;;;;;;;;;5054392;28;20041;-89
2023/09/20 03:54:05;;;;;;;1999.90;999.90;;;;;;;;;;5060724;28;20409;-88
2023/09/20 03:56:31;;;;;;;1999.90;999.90;;;;;;;;;;5057013;28;20090;-90
2023/09/20 03:58:59;;;;;;;1999.90;999.90;;;;;;;;;;5056642;28;20417;-89
2023/09/20 04:01:28;;;;;;;1999.90;999.90;;;;;;;;;;5062230;28;20566;-90
2023/09/20 04:03:54;;;;;;;1999.90;999.90;;;;;;;;;;5056095;28;20061;-90
2023/09/20 04:06:23;;;;;;;1999.90;999.90;;;;;;;;;;5058528;28;20048;-90
2023/09/20 04:08:50;;;;;;;1999.90;999.90;;;;;;;;;;5062757;28;20047;-89
2023/09/20 04:11:16;;;;;;;1999.90;999.90;;;;;;;;;;5062194;28;20057;-90
2023/09/20 04:13:50;;;;;;;1999.90;999.90;;;;;;;;;;5059326;28;20048;-89
2023/09/20 04:16:18;;;;;;;1999.90;999.90;;;;;;;;;;5059801;28;20060;-91
2023/09/20 04:18:47;;;;;;;1999.90;999.90;;;;;;;;;;5062064;28;20052;-90
2023/09/20 04:21:14;;;;;;;1999.90;999.90;;;;;;;;;;5063785;28;20052;-91
2023/09/20 04:23:40;;;;;;;1999.90;999.90;;;;;;;;;;5058448;28;20556;-90
2023/09/20 04:26:07;;;;;;;1999.90;999.90;;;;;;;;;;5055960;28;20049;-89
2023/09/20 04:28:34;;;;;;;1999.90;999.90;;;;;;;;;;5051907;28;20059;-90
2023/09/20 04:31:00;;;;;;;1999.90;999.90;;;;;;;;;;5059194;28;20047;-89
2023/09/20 04:33:28;;;;;;;1999.90;999.90;;;;;;;;;;5062368;28;20579;-90
2023/09/20 04:35:57;;;;;;;1999.90;999.90;;;;;;;;;;5061385;28;20052;-92
2023/09/20 04:38:24;;;;;;;1999.90;999.90;;;;;;;;;;5059883;28;20041;-90
2023/09/20 04:40:50;;;;;;;1999.90;999.90;;;;;;;;;;5076363;28;20049;-91
2023/09/20 04:43:17;;;;;;;1999.90;999.90;;;;;;;;;;5071345;28;20049;-90
2023/09/20 04:45:44;;;;;;;1999.90;999.90;;;;;;;;;;5066718;28;20366;-90
2023/09/20 04:48:10;;;;;;;1999.90;999.90;;;;;;;;;;5069453;28;20041;-90
2023/09/20 04:50:38;;;;;;;1999.90;999.90;;;;;;;;;;5068478;28;20048;-92
2023/09/20 04:53:05;;;;;;;1999.90;999.90;;;;;;;;;;5067401;28;20140;-90
2023/09/20 04:55:33;;;;;;;1999.90;999.90;;;;;;;;;;5061493;28;20064;-92
2023/09/20 04:58:00;;;;;;;1999.90;999.90;;;;;;;;;;5062656;28;20049;-91
2023/09/20 05:00:33;;;;;;;1999.90;999.90;;;;;;;;;;5063303;28;20075;-92
2023/09/20 05:03:00;;;;;;;1999.90;999.90;;;;;;;;;;5062473;28;20061;-93
2023/09/20 05:05:26;;;;;;;1999.90;999.90;;;;;;;;;;5068287;28;20492;-92
2023/09/20 05:07:56;;;;;;;1999.90;999.90;;;;;;;;;;5068030;28;20040;-93
2023/09/20 05:10:23;;;;;;;1999.90;999.90;;;;;;;;;;5068979;28;20056;-92
2023/09/20 05:12:49;;;;;;;1999.90;999.90;;;;;;;;;;5069528;28;20059;-92
2023/09/20 05:15:16;;;;;;;1999.90;999.90;;;;;;;;;;5071851;28;20488;-92
2023/09/20 05:17:43;;;;;;;1999.90;999.90;;;;;;;;;;5068296;28;20049;-91
2023/09/20 05:20:12;;;;;;;1999.90;999.90;;;;;;;;;;5071030;28;20049;-90
2023/09/20 05:22:39;;;;;;;1999.90;999.90;;;;;;;;;;5067009;28;20053;-90
2023/09/20 05:25:11;;;;;;;1999.90;999.90;;;;;;;;;;5063555;28;20083;-93
2023/09/20 05:27:37;;;;;;;1999.90;999.90;;;;;;;;;;5071131;28;20102;-93
2023/09/20 05:30:05;;;;;;;1999.90;999.90;;;;;;;;;;5076072;28;20048;-93
2023/09/20 05:32:32;;;;;;;1999.90;999.90;;;;;;;;;;5071000;28;20052;-91
2023/09/20 05:34:58;;;;;;;1999.90;999.90;;;;;;;;;;5066147;28;20062;-93
2023/09/20 05:37:25;;;;;;;1999.90;999.90;;;;;;;;;;5075544;28;20040;-93
2023/09/20 05:39:51;;;;;;;1999.90;999.90;;;;;;;;;;5066158;28;20053;-87
2023/09/20 05:42:19;;;;;;;1999.90;999.90;;;;;;;;;;5063428;28;20045;-87
2023/09/20 05:44:51;;;;;;;1999.90;999.90;;;;;;;;;;5064593;28;20045;-88
2023/09/20 05:47:17;;;;;;;1999.90;999.90;;;;;;;;;;5058610;28;20044;-87
2023/09/20 05:49:45;;;;;;;1999.90;999.90;;;;;;;;;;5062850;28;20041;-86
2023/09/20 05:52:11;;;;;;;1999.90;999.90;;;;;;;;;;5062424;28;20501;-88
2023/09/20 05:54:42;;;;;;;1999.90;999.90;;;;;;;;;;5060946;28;20045;-86
2023/09/20 05:57:08;;;;;;;1999.90;999.90;;;;;;;;;;5060569;28;20056;-87
2023/09/20 05:59:36;;;;;;;1999.90;999.90;;;;;;;;;;5061940;28;20473;-86
2023/09/20 06:02:03;;;;;;;1999.90;999.90;;;;;;;;;;5061944;28;20058;-86
2023/09/20 06:04:30;;;;;;;1999.90;999.90;;;;;;;;;;5064362;28;20101;-87
2023/09/20 06:06:57;;;;;;;1999.90;999.90;;;;;;;;;;5063366;28;20181;-88
2023/09/20 06:09:23;;;;;;;1999.90;999.90;;;;;;;;;;5061844;28;20055;-87
2023/09/20 06:11:50;;;;;;;1999.90;999.90;;;;;;;;;;5060571;28;20044;-88
2023/09/20 06:14:17;;;;;;;1999.90;999.90;;;;;;;;;;5059182;28;20139;-90
2023/09/20 06:16:45;;;;;;;1999.90;999.90;;;;;;;;;;5056405;28;20465;-86
2023/09/20 06:19:12;;;;;;;1999.90;999.90;;;;;;;;;;5061056;28;20115;-87
2023/09/20 06:21:38;;;;;;;1999.90;999.90;;;;;;;;;;5061620;28;20444;-86
2023/09/20 06:24:10;;;;;;;1999.90;999.90;;;;;;;;;;5061290;28;20048;-86
2023/09/20 06:26:37;;;;;;;1999.90;999.90;;;;;;;;;;5061992;28;20059;-87
2023/09/20 06:29:03;;;;;;;1999.90;999.90;;;;;;;;;;5054132;28;20041;-86
2023/09/20 06:31:30;;;;;;;1999.90;999.90;;;;;;;;;;5059455;28;20056;-88
2023/09/20 06:33:58;;;;;;;1999.90;999.90;;;;;;;;;;5062838;28;20499;-88
2023/09/20 06:36:24;;;;;;;1999.90;999.90;;;;;;;;;;5056504;28;20056;-86
2023/09/20 06:38:51;;;;;;;1999.90;999.90;;;;;;;;;;5059905;28;20342;-87
2023/09/20 06:41:18;;;;;;;1999.90;999.90;;;;;;;;;;5060418;28;20045;-85
2023/09/20 06:43:44;;;;;;;1999.90;999.90;;;;;;;;;;5061599;28;20041;-86
2023/09/20 06:46:11;;;;;;;1999.90;999.90;;;;;;;;;;5056917;28;20051;-86
2023/09/20 06:48:38;;;;;;;1999.90;999.90;;;;;;;;;;5059685;28;20488;-88
2023/09/20 06:51:06;;;;;;;1999.90;999.90;;;;;;;;;;5056796;28;20040;-86
2023/09/20 06:53:32;;;;;;;1999.90;999.90;;;;;;;;;;5061100;28;20061;-86
2023/09/20 06:55:59;;;;;;;1999.90;999.90;;;;;;;;;;5058441;28;20068;-88
2023/09/20 06:58:26;;;;;;;1999.90;999.90;;;;;;;;;;5059761;28;20053;-88
2023/09/20 07:00:53;;;;;;;1999.90;999.90;;;;;;;;;;5062995;28;20052;-87
2023/09/20 07:03:20;;;;;;;1999.90;999.90;;;;;;;;;;5059520;28;20059;-89
2023/09/20 07:05:46;;;;;;;1999.90;999.90;;;;;;;;;;5063048;28;20113;-88
2023/09/20 07:08:14;;;;;;;1999.90;999.90;;;;;;;;;;5059974;28;20067;-87
2023/09/20 07:10:42;;;;;;;1999.90;999.90;;;;;;;;;;5059263;28;20044;-87
2023/09/20 07:13:10;;;;;;;1999.90;999.90;;;;;;;;;;5061349;28;20417;-88
2023/09/20 07:15:37;;;;;;;1999.90;999.90;;;;;;;;;;5056597;28;20044;-87
2023/09/20 07:18:11;;;;;;;1999.90;999.90;;;;;;;;;;5060254;28;20091;-88
2023/09/20 07:20:39;;;;;;;1999.90;999.90;;;;;;;;;;5060360;28;20048;-88
2023/09/20 07:23:08;;;;;;;1999.90;999.90;;;;;;;;;;5058790;28;20056;-86
2023/09/20 07:25:36;;;;;;;1999.90;999.90;;;;;;;;;;5060543;28;20049;-89
2023/09/20 07:28:06;;;;;;;1999.90;999.90;;;;;;;;;;5055274;28;20052;-87
2023/09/20 07:30:39;;;;;;;1999.90;999.90;;;;;;;;;;5061457;28;20068;-87
2023/09/20 07:33:11;;;;;;;1999.90;999.90;;;;;;;;;;5063890;28;20075;-88
2023/09/20 07:35:38;;;;;;;1999.90;999.90;;;;;;;;;;5063165;28;20059;-87
2023/09/20 07:38:12;;;;;;;1999.90;999.90;;;;;;;;;;5058494;28;20049;-87
2023/09/20 07:40:41;;;;;;;1999.90;999.90;;;;;;;;;;5060301;28;20052;-86
2023/09/20 07:43:08;;;;;;;1999.90;999.90;;;;;;;;;;5061017;28;20423;-87
2023/09/20 07:45:38;;;;;;;1999.90;999.90;;;;;;;;;;5058779;28;20051;-85
2023/09/20 07:48:12;;;;;;;1999.90;999.90;;;;;;;;;;5059901;28;20044;-86
2023/09/20 07:50:42;;;;;;;1999.90;999.90;;;;;;;;;;5057232;28;20043;-86
2023/09/20 07:53:10;;;;;;;1999.90;999.90;;;;;;;;;;5062838;28;20056;-87
2023/09/20 07:55:45;;;;;;;1999.90;999.90;;;;;;;;;;5061429;28;20136;-85
2023/09/20 07:58:13;;;;;;;1999.90;999.90;;;;;;;;;;5062906;28;20060;-85
2023/09/20 08:00:44;;;;;;;1999.90;999.90;;;;;;;;;;5057580;28;20397;-87
2023/09/20 08:03:11;;;;;;;1999.90;999.90;;;;;;;;;;5056345;28;20083;-86
2023/09/20 08:05:38;;;;;;;1999.90;999.90;;;;;;;;;;5059357;28;20041;-84
2023/09/20 08:08:06;;;;;;;1999.90;999.90;;;;;;;;;;5059136;28;20060;-86
2023/09/20 08:10:33;;;;;;;1999.90;999.90;;;;;;;;;;5056856;28;20055;-84
2023/09/20 08:13:03;;;;;;;1999.90;999.90;;;;;;;;;;5051952;28;20048;-87
2023/09/20 08:15:32;;;;;;;1999.90;999.90;;;;;;;;;;5064232;28;20047;-87
2023/09/20 08:20:43;;;;;;;1999.90;999.90;;;;;;;;;;5056455;28;20055;-85
2023/09/20 09:01:37;;;;;;;1999.90;999.90;;;;;;;;;;5053270;28;20171;-85
2023/09/20 09:04:06;;;;;;;1999.90;999.90;;;;;;;;;;5058447;28;20056;-84
2023/09/20 09:06:32;;;;;;;1999.90;999.90;;;;;;;;;;5059460;28;20048;-86
2023/09/20 09:08:59;;;;;;;1999.90;999.90;;;;;;;;;;5058512;28;20289;-85
2023/09/20 09:11:26;;;;;;;1999.90;999.90;;;;;;;;;;5059669;28;20048;-86
2023/09/20 09:13:54;;;;;;;1999.90;999.90;;;;;;;;;;5063560;28;20049;-84
2023/09/20 09:16:21;;;;;;;1999.90;999.90;;;;;;;;;;5057055;28;20049;-87
2023/09/20 09:18:49;;;;;;;1999.90;999.90;;;;;;;;;;5061043;28;20081;-84
2023/09/20 09:21:17;;;;;;;1999.90;999.90;;;;;;;;;;5057651;28;20045;-84
2023/09/20 09:23:45;;;;;;;1999.90;999.90;;;;;;;;;;5058677;28;20123;-85
2023/09/20 09:26:12;;;;;;;1999.90;999.90;;;;;;;;;;5061311;28;20420;-85
2023/09/20 09:28:41;;;;;;;1999.90;999.90;;;;;;;;;;5065242;28;20048;-85
2023/09/20 09:31:08;;;;;;;1999.90;999.90;;;;;;;;;;5057140;28;20049;-87
2023/09/20 09:33:35;;;;;;;1999.90;999.90;;;;;;;;;;5062495;28;20826;-85
2023/09/20 09:36:03;;;;;;;1999.90;999.90;;;;;;;;;;5064840;28;20083;-84
2023/09/20 09:38:33;;;;;;;1999.90;999.90;;;;;;;;;;5064382;28;20528;-85
2023/09/20 09:41:00;;;;;;;1999.90;999.90;;;;;;;;;;5062690;28;20072;-85
2023/09/20 09:43:27;;;;;;;1999.90;999.90;;;;;;;;;;5061356;28;20044;-85
2023/09/20 09:45:54;;;;;;;1999.90;999.90;;;;;;;;;;5062947;28;20052;-86
2023/09/20 09:48:22;;;;;;;1999.90;999.90;;;;;;;;;;5062674;28;20045;-86
2023/09/20 09:50:49;;;;;;;1999.90;999.90;;;;;;;;;;5062328;28;20045;-86
2023/09/20 09:53:20;;;;;;;1999.90;999.90;;;;;;;;;;5063095;28;20134;-84
2023/09/20 09:55:47;;;;;;;1999.90;999.90;;;;;;;;;;5058384;28;20128;-86
2023/09/20 09:58:14;;;;;;;1999.90;999.90;;;;;;;;;;5061989;28;20071;-84
2023/09/20 10:00:41;;;;;;;1999.90;999.90;;;;;;;;;;5060794;28;20049;-86
2023/09/20 10:03:15;;;;;;;1999.90;999.90;;;;;;;;;;5060441;28;20057;-86
2023/09/20 10:05:45;;;;;;;1999.90;999.90;;;;;;;;;;5058152;28;20064;-86
2023/09/20 10:08:13;;;;;;;1999.90;999.90;;;;;;;;;;5062654;28;20053;-85
2023/09/20 10:10:41;;;;;;;1999.90;999.90;;;;;;;;;;5063185;28;20045;-86
2023/09/20 10:13:08;;;;;;;1999.90;999.90;;;;;;;;;;5061187;28;20767;-85
2023/09/20 10:15:35;;;;;;;1999.90;999.90;;;;;;;;;;5058443;28;20055;-85
2023/09/20 10:18:02;;;;;;;1999.90;999.90;;;;;;;;;;5058582;28;20055;-87
2023/09/20 10:20:58;;;;;;;1999.90;999.90;;;;;;;;;;5058938;28;20070;-87
2023/09/20 10:23:24;;;;;;;1999.90;999.90;;;;;;;;;;5062212;28;20048;-86
2023/09/20 10:25:53;;;;;;;1999.90;999.90;;;;;;;;;;5057740;28;20423;-85
2023/09/20 10:28:20;;;;;;;1999.90;999.90;;;;;;;;;;5060849;28;20052;-85
2023/09/20 10:31:02;;;;;;;1999.90;999.90;;;;;;;;;;5059288;28;20049;-87
2023/09/20 10:33:41;;;;;;;1999.90;999.90;;;;;;;;;;5056084;28;20051;-88
2023/09/20 10:36:07;;;;;;;1999.90;999.90;;;;;;;;;;5058653;28;20097;-86
2023/09/20 10:38:34;;;;;;;1999.90;999.90;;;;;;;;;;5059347;28;20052;-87
2023/09/20 10:41:05;;;;;;;1999.90;999.90;;;;;;;;;;5062002;28;20049;-87
2023/09/20 10:43:47;;;;;;;1999.90;999.90;;;;;;;;;;5060833;28;20041;-83
2023/09/20 10:46:17;;;;;;;1999.90;999.90;;;;;;;;;;5057942;28;20047;-84
2023/09/20 10:48:48;;;;;;;1999.90;999.90;;;;;;;;;;5058580;28;20041;-85
2023/09/20 10:51:48;;;;;;;1999.90;999.90;;;;;;;;;;5054866;28;20128;-88
2023/09/20 10:54:23;;;;;;;1999.90;999.90;;;;;;;;;;5058899;28;20559;-86
2023/09/20 10:57:12;;;;;;;1999.90;999.90;;;;;;;;;;5059972;28;20041;-86
2023/09/20 10:59:40;;;;;;;1999.90;999.90;;;;;;;;;;5060942;28;20048;-85
2023/09/20 11:02:12;;;;;;;1999.90;999.90;;;;;;;;;;5060357;28;20052;-84
2023/09/20 11:04:39;;;;;;;1999.90;999.90;;;;;;;;;;5062102;28;20036;-85
2023/09/20 11:07:07;;;;;;;1999.90;999.90;;;;;;;;;;5058476;28;20056;-84
2023/09/20 11:09:34;;;;;;;1999.90;999.90;;;;;;;;;;5057890;28;20052;-86
2023/09/20 11:12:06;;;;;;;1999.90;999.90;;;;;;;;;;5063721;28;20130;-85
2023/09/20 11:14:35;;;;;;;1999.90;999.90;;;;;;;;;;5058737;28;20087;-86
2023/09/20 11:17:05;;;;;;;1999.90;999.90;;;;;;;;;;5055112;28;20045;-85
2023/09/20 11:19:32;;;;;;;1999.90;999.90;;;;;;;;;;5060305;28;20138;-85
2023/09/20 11:21:59;;;;;;;1999.90;999.90;;;;;;;;;;5056095;28;20053;-85
2023/09/20 11:24:26;;;;;;;1999.90;999.90;;;;;;;;;;5060357;28;20049;-84
2023/09/20 11:26:54;;;;;;;1999.90;999.90;;;;;;;;;;5057887;28;20041;-86
2023/09/20 11:29:21;;;;;;;1999.90;999.90;;;;;;;;;;5059278;28;20049;-85
2023/09/20 11:31:50;;;;;;;1999.90;999.90;;;;;;;;;;5057446;28;20504;-84
2023/09/20 11:34:19;;;;;;;1999.90;999.90;;;;;;;;;;5060169;28;20530;-84
2023/09/20 11:36:46;;;;;;;1999.90;999.90;;;;;;;;;;5058551;28;20048;-84
2023/09/20 11:39:14;;;;;;;1999.90;999.90;;;;;;;;;;5057803;28;20048;-86
2023/09/20 11:41:43;;;;;;;1999.90;999.90;;;;;;;;;;5060794;28;20072;-87
2023/09/20 11:44:10;;;;;;;1999.90;999.90;;;;;;;;;;5059409;28;20516;-83
2023/09/20 11:46:37;;;;;;;1999.90;999.90;;;;;;;;;;5054255;28;20044;-87
2023/09/20 11:49:06;;;;;;;1999.90;999.90;;;;;;;;;;5061291;28;20040;-85
2023/09/20 11:51:34;;;;;;;1999.90;999.90;;;;;;;;;;5061180;28;20565;-84
2023/09/20 11:54:01;;;;;;;1999.90;999.90;;;;;;;;;;5061367;28;20505;-85
2023/09/20 11:56:29;;;;;;;1999.90;999.90;;;;;;;;;;5058753;28;20049;-86
2023/09/20 11:58:59;;;;;;;1999.90;999.90;;;;;;;;;;5059869;28;20052;-85
2023/09/20 12:01:25;;;;;;;1999.90;999.90;;;;;;;;;;5062020;28;20489;-83
2023/09/20 12:03:52;;;;;;;1999.90;999.90;;;;;;;;;;5061069;28;20075;-83
2023/09/20 12:06:21;;;;;;;1999.90;999.90;;;;;;;;;;5064880;28;20062;-83
2023/09/20 12:08:48;;;;;;;1999.90;999.90;;;;;;;;;;5059306;28;20045;-84
2023/09/20 12:11:15;;;;;;;1999.90;999.90;;;;;;;;;;5056817;28;20049;-83
2023/09/20 12:13:43;;;;;;;1999.90;999.90;;;;;;;;;;5066132;28;20048;-86
2023/09/20 12:16:09;;;;;;;1999.90;999.90;;;;;;;;;;5060131;28;20155;-85
2023/09/20 12:18:37;;;;;;;1999.90;999.90;;;;;;;;;;5061716;28;20048;-83
2023/09/20 12:21:03;;;;;;;1999.90;999.90;;;;;;;;;;5059128;28;20067;-85
2023/09/20 12:23:31;;;;;;;1999.90;999.90;;;;;;;;;;5059882;28;20069;-86
2023/09/20 12:25:58;;;;;;;1999.90;999.90;;;;;;;;;;5063125;28;20083;-82
2023/09/20 12:28:25;;;;;;;1999.90;999.90;;;;;;;;;;5060807;28;20049;-84
2023/09/20 12:30:52;;;;;;;1999.90;999.90;;;;;;;;;;5063312;28;20048;-84
2023/09/20 12:33:19;;;;;;;1999.90;999.90;;;;;;;;;;5059783;28;20045;-84
2023/09/20 12:35:46;;;;;;;1999.90;999.90;;;;;;;;;;5058968;28;20455;-83
2023/09/20 12:38:13;;;;;;;1999.90;999.90;;;;;;;;;;5065526;28;20041;-83
2023/09/20 12:40:41;;;;;;;1999.90;999.90;;;;;;;;;;5060736;28;20052;-85
2023/09/20 12:43:07;;;;;;;1999.90;999.90;;;;;;;;;;5058961;28;20049;-84
2023/09/20 12:45:34;;;;;;;1999.90;999.90;;;;;;;;;;5060549;28;20131;-83
2023/09/20 12:48:00;;;;;;;1999.90;999.90;;;;;;;;;;5064981;28;20047;-85
2023/09/20 12:50:32;;;;;;;1999.90;999.90;;;;;;;;;;5054674;28;20048;-86
2023/09/20 12:52:59;;;;;;;1999.90;999.90;;;;;;;;;;5062998;28;20072;-84
2023/09/20 12:55:27;;;;;;;1999.90;999.90;;;;;;;;;;5061883;28;20059;-85
2023/09/20 12:57:55;;;;;;;1999.90;999.90;;;;;;;;;;5060744;28;20048;-85
2023/09/20 13:00:21;;;;;;;1999.90;999.90;;;;;;;;;;5060129;28;20055;-85
2023/09/20 13:02:48;;;;;;;1999.90;999.90;;;;;;;;;;5066338;28;20499;-85
2023/09/20 13:05:15;;;;;;;1999.90;999.90;;;;;;;;;;5066989;28;20041;-87
2023/09/20 13:07:41;;;;;;;1999.90;999.90;;;;;;;;;;5066144;28;20055;-87
2023/09/20 13:10:13;;;;;;;1999.90;999.90;;;;;;;;;;5061860;28;20404;-84
2023/09/20 13:12:40;;;;;;;1999.90;999.90;;;;;;;;;;5063596;28;20099;-86
2023/09/20 13:15:12;;;;;;;1999.90;999.90;;;;;;;;;;5065585;28;20167;-83
2023/09/20 13:17:39;;;;;;;1999.90;999.90;;;;;;;;;;5059112;28;20127;-85
2023/09/20 13:20:07;;;;;;;1999.90;999.90;;;;;;;;;;5063964;28;20048;-85
2023/09/20 13:22:33;;;;;;;1999.90;999.90;;;;;;;;;;5064319;28;20390;-87
2023/09/20 13:25:00;;;;;;;1999.90;999.90;;;;;;;;;;5061847;28;20044;-83
2023/09/20 13:27:26;;;;;;;1999.90;999.90;;;;;;;;;;5065545;28;20045;-84
2023/09/20 13:29:54;;;;;;;1999.90;999.90;;;;;;;;;;5061877;28;20054;-84
2023/09/20 13:32:21;;;;;;;1999.90;999.90;;;;;;;;;;5062446;28;20049;-84
2023/09/20 13:34:48;;;;;;;1999.90;999.90;;;;;;;;;;5068718;28;20052;-84
2023/09/20 13:37:14;;;;;;;1999.90;999.90;;;;;;;;;;5063852;28;20049;-85
2023/09/20 13:39:42;;;;;;;1999.90;999.90;;;;;;;;;;5066324;28;20052;-84
2023/09/20 13:42:09;;;;;;;1999.90;999.90;;;;;;;;;;5066815;28;20045;-84
2023/09/20 13:44:42;;;;;;;1999.90;999.90;;;;;;;;;;5067153;28;20052;-83
2023/09/20 13:47:09;;;;;;;1999.90;999.90;;;;;;;;;;5056443;28;20041;-85
2023/09/20 13:49:37;;;;;;;1999.90;999.90;;;;;;;;;;5066723;28;20045;-85
2023/09/20 13:52:06;;;;;;;1999.90;999.90;;;;;;;;;;5063534;28;20049;-85
2023/09/20 13:54:32;;;;;;;1999.90;999.90;;;;;;;;;;5062060;28;20045;-84
2023/09/20 13:56:59;;;;;;;1999.90;999.90;;;;;;;;;;5068963;28;20102;-86
2023/09/20 13:59:29;;;;;;;1999.90;999.90;;;;;;;;;;5061494;28;20496;-86
2023/09/20 14:01:57;;;;;;;1999.90;999.90;;;;;;;;;;5064475;28;20055;-84
2023/09/20 14:04:25;;;;;;;1999.90;999.90;;;;;;;;;;5064408;28;20099;-86
2023/09/20 14:06:52;;;;;;;1999.90;999.90;;;;;;;;;;5063667;28;20071;-85
2023/09/20 14:09:20;;;;;;;1999.90;999.90;;;;;;;;;;5066232;28;20049;-85
2023/09/20 14:11:47;;;;;;;1999.90;999.90;;;;;;;;;;5058615;28;20044;-87
2023/09/20 14:14:14;;;;;;;1999.90;999.90;;;;;;;;;;5060095;28;20049;-85
2023/09/20 14:16:40;;;;;;;1999.90;999.90;;;;;;;;;;5063904;28;20153;-87
2023/09/20 14:19:07;;;;;;;1999.90;999.90;;;;;;;;;;5067285;28;20076;-86
2023/09/20 14:21:34;;;;;;;1999.90;999.90;;;;;;;;;;5065274;28;20401;-86
2023/09/20 14:24:03;;;;;;;1999.90;999.90;;;;;;;;;;5065144;28;20049;-85
2023/09/20 14:26:30;;;;;;;1999.90;999.90;;;;;;;;;;5064772;28;20049;-86